Station: Whyalla  

  Atmospheric Gas Attenuation - ITU Rec 676-11   ----------------- dB/100km -----------------
Date Time Temp RH % AH g/m3 Dew Point Wind Direction Speed kph Gust kph Barometer mB Rainfall Since 9am 24GHz 47GHz 76GHz 122GHz 134GHz 241GHz
03/05 05:40 9.5 86 7.83 7.3 15 17 1013.4 2.8 18.1 25.9 38.8 101.7 93.4 320.5
03/05 05:30 9.4 86 7.78 7.2 15 17 1013.4 2.8 18.0 25.8 38.6 101.3 92.9 318.5
03/05 05:20 9.2 86 7.68 7 15 17 1013.3 2.8 17.8 25.7 38.3 100.5 91.7 314.5
03/05 05:10 9.4 84 7.6 6.8 11 13 1013.2 2.8 17.6 25.5 37.9 99.3 90.4 309.9
03/05 05:00 9.4 84 7.6 6.8 11 13 1013.2 2.8 17.6 25.5 37.9 99.3 90.4 309.9
03/05 04:50 9.5 83 7.56 6.8 11 13 1013 2.8 17.6 25.4 37.7 98.7 89.7 307.6
03/05 04:40 9.6 83 7.61 6.9 11 13 1012.9 2.8 17.7 25.5 37.8 99.1 90.3 309.5
03/05 04:30 9.5 83 7.56 6.8 13 15 1013 2.8 17.6 25.4 37.7 98.7 89.7 307.6
03/05 04:20 9.7 83 7.65 7 15 17 1012.9 2.8 17.7 25.5 37.9 99.5 90.7 311.0
03/05 04:10 9.6 84 7.7 7 15 17 1012.9 2.8 17.9 25.6 38.2 100.1 91.5 313.8
03/05 04:00 9.4 82 7.42 6.5 13 17 1013 2.8 17.3 25.2 37.1 97.3 88.0 301.4
03/05 03:50 9.6 83 7.61 6.9 13 13 1012.8 2.8 17.7 25.5 37.8 99.1 90.3 309.5
03/05 03:40 9.7 82 7.56 6.8 13 13 1012.8 2.8 17.6 25.4 37.6 98.5 89.5 306.7
03/05 03:30 9.9 81 7.56 6.8 13 15 1012.9 2.8 17.5 25.3 37.5 98.2 89.3 306.0
03/05 03:20 9.6 82 7.51 6.7 13 13 1012.9 2.8 17.4 25.3 37.4 98.1 88.9 304.8
03/05 03:10 9.8 81 7.52 6.7 9 11 1012.8 2.8 17.5 25.3 37.4 97.9 88.8 304.5
03/05 03:00 9.9 80 7.47 6.6 11 13 1012.7 2.8 17.3 25.2 37.1 97.2 88.0 301.7
03/05 02:50 10 79 7.43 6.5 11 11 1012.7 2.8 17.3 25.1 36.9 96.7 87.4 299.5
03/05 02:40 10 80 7.52 6.7 9 11 1012.8 2.8 17.5 25.2 37.3 97.7 88.6 303.7
03/05 02:30 9.9 80 7.47 6.6 13 13 1012.8 2.8 17.3 25.2 37.1 97.2 88.0 301.7
03/05 02:20 10 80 7.52 6.7 11 11 1012.5 2.8 17.5 25.2 37.3 97.6 88.6 303.6
03/05 02:10 10 80 7.52 6.7 13 13 1012.5 2.8 17.5 25.2 37.3 97.6 88.6 303.6
03/05 02:00 10.2 79 7.52 6.7 13 15 1012.5 2.8 17.4 25.1 37.2 97.4 88.4 302.8
03/05 01:50 10.2 78 7.42 6.5 11 13 1012.3 2.8 17.2 25.0 36.7 96.3 87.0 298.1
03/05 01:40 10.3 77 7.38 6.5 9 11 1012.4 2.8 17.1 24.9 36.5 95.7 86.4 295.9
03/05 01:30 10.7 76 7.47 6.6 13 15 1012.5 2.8 17.3 24.9 36.7 96.2 87.1 298.6
03/05 01:20 11.1 74 7.46 6.6 13 15 1012.4 2.8 17.3 24.8 36.5 95.6 86.5 296.6
03/05 01:10 11.4 72 7.39 6.5 13 17 1012.4 2.8 17.1 24.6 36.1 94.5 85.3 292.3
03/05 01:00 11.9 70 7.41 6.6 17 20 1012.5 2.8 17.1 24.5 35.9 94.1 85.0 291.4
03/05 00:50 11.9 70 7.41 6.6 17 19 1012.4 2.8 17.1 24.5 35.9 94.1 85.0 291.3
03/05 00:40 12.1 69 7.4 6.6 15 19 1012.5 2.8 17.1 24.4 35.8 93.8 84.7 290.2
03/05 00:30 11.9 71 7.52 6.8 15 19 1012.6 2.8 17.4 24.7 36.4 95.3 86.4 296.4
03/05 00:20 11.3 74 7.55 6.8 15 17 1012.5 2.8 17.5 24.9 36.8 96.3 87.5 300.0
03/05 00:10 11.3 73 7.45 6.6 15 17 1012.6 2.8 17.2 24.7 36.4 95.3 86.2 295.4
03/05 00:00 11.2 73 7.4 6.5 15 17 1012.8 2.8 17.1 24.7 36.2 94.9 85.7 293.6
02/05 23:50 11.5 72 7.44 6.6 15 17 1012.7 2.8 17.2 24.7 36.2 95.0 85.9 294.3
02/05 23:40 11.8 70 7.37 6.5 15 17 1012.8 2.8 17.1 24.5 35.8 93.9 84.6 290.0
02/05 23:30 11.8 71 7.47 6.7 13 17 1012.9 2.8 17.3 24.6 36.2 94.9 85.9 294.6
02/05 23:20 11.7 72 7.53 6.8 11 19 1012.9 2.8 17.4 24.8 36.5 95.7 86.8 297.7
02/05 23:10 11.6 73 7.59 6.9 13 15 1012.9 2.8 17.5 24.9 36.8 96.4 87.7 300.8
02/05 23:00 11.8 72 7.58 6.9 13 15 1013.1 2.8 17.5 24.8 36.7 96.1 87.4 299.6
02/05 22:50 12.1 70 7.51 6.8 13 13 1013.1 2.8 17.3 24.6 36.3 95.0 86.1 295.3
02/05 22:40 12 73 7.78 7.3 15 17 1013.2 2.8 17.9 25.1 37.4 98.0 89.8 308.1
02/05 22:30 12 74 7.89 7.5 13 17 1013.4 2.8 18.2 25.3 37.8 99.2 91.2 313.2
02/05 22:20 12.2 74 7.99 7.7 13 13 1013.2 2.8 18.4 25.4 38.1 100.0 92.3 317.0
02/05 22:10 12.3 74 8.04 7.8 13 15 1013.1 2.8 18.5 25.4 38.3 100.4 92.8 318.8
02/05 22:00 12.5 73 8.03 7.8 13 17 1013.2 2.8 18.4 25.3 38.1 100.0 92.5 317.6
02/05 21:50 12.7 72 8.02 7.8 13 15 1013 2.8 18.4 25.3 38.0 99.7 92.1 316.3
02/05 21:40 13 72 8.17 8.1 15 17 1012.9 2.8 18.7 25.4 38.5 100.9 93.7 321.9
02/05 21:30 12.9 75 8.45 8.6 15 17 1013.1 2.8 19.3 25.9 39.6 104.0 97.5 335.4
02/05 21:20 13.1 73 8.33 8.4 15 15 1012.9 2.8 19.0 25.6 39.0 102.4 95.7 328.9
02/05 21:10 13.2 74 8.5 8.7 13 15 1012.9 2.8 19.4 25.9 39.7 104.1 97.8 336.3
02/05 21:00 13.3 75 8.67 9 15 17 1013 2.8 19.8 26.1 40.3 105.8 99.9 343.9
02/05 20:50 13.3 77 8.9 9.4 15 17 1012.8 2.8 20.3 26.5 41.2 108.3 103.0 354.6
02/05 20:40 13.1 78 8.9 9.4 15 15 1012.8 2.8 20.3 26.6 41.4 108.6 103.3 355.5
02/05 20:30 13.1 79 9.02 9.5 11 13 1012.7 2.8 20.5 26.8 41.8 109.9 104.9 361.1
02/05 20:20 13.6 77 9.06 9.6 11 13 1012.5 2.8 20.6 26.7 41.7 109.6 104.7 360.6
02/05 20:10 13.9 76 9.11 9.7 11 11 1012.5 2.8 20.7 26.7 41.8 109.7 105.0 361.6
02/05 20:00 14.1 77 9.35 10.1 9 11 1012.4 2.8 21.2 27.0 42.6 112.1 107.9 371.9
02/05 19:50 14.5 77 9.58 10.5 9 11 1012.2 2.8 21.7 27.3 43.4 114.0 110.5 380.8
02/05 19:40 14.6 77 9.64 10.6 13 15 1012.1 2.8 21.8 27.3 43.6 114.5 111.1 383.2
02/05 19:30 15 76 9.75 10.8 15 19 1011.9 2.8 22.0 27.4 43.8 115.1 112.0 386.3
02/05 19:20 15.2 74 9.6 10.6 13 15 1011.7 2.8 21.7 27.0 43.0 113.1 109.7 378.2
02/05 19:10 15.5 73 9.65 10.7 15 17 1011.5 2.8 21.8 27.0 43.1 113.2 109.9 379.1
02/05 19:00 15.8 72 9.69 10.8 17 20 1011.5 2.8 21.8 27.0 43.1 113.2 110.0 379.5
02/05 18:50 15.9 72 9.75 10.9 17 19 1011.3 2.8 21.9 27.1 43.3 113.7 110.7 381.7
02/05 18:40 16.2 70 9.65 10.7 15 17 1011.1 2.8 21.7 26.8 42.7 112.2 108.9 375.6
02/05 18:30 16.4 68 9.49 10.5 17 22 1011.1 2.8 21.4 26.5 41.9 110.2 106.5 367.2
02/05 18:20 16.6 67 9.46 10.5 17 19 1010.9 2.8 21.3 26.4 41.7 109.6 105.8 364.9
02/05 18:10 16.7 66 9.38 10.3 15 19 1010.8 2.8 21.1 26.2 41.3 108.6 104.6 360.7
02/05 18:00 16.8 65 9.29 10.2 17 24 1010.8 2.8 20.9 26.0 40.9 107.5 103.3 356.2
02/05 17:50 17.1 64 9.32 10.2 19 22 1010.7 2.8 21.0 26.0 40.9 107.4 103.3 356.2
02/05 17:40 17.3 64 9.43 10.4 17 20 1010.7 2.8 21.2 26.1 41.2 108.3 104.5 360.2
02/05 17:30 17.5 63 9.39 10.4 17 24 1010.7 2.8 21.1 26.0 40.9 107.6 103.7 357.5
02/05 17:20 17.7 64 9.66 10.8 17 20 1010.5 2.8 21.7 26.3 41.9 110.1 106.9 368.8
02/05 17:10 18 62 9.52 10.6 15 17 1010.4 2.8 21.3 26.0 41.2 108.2 104.7 361.0
02/05 17:00 18.1 60 9.27 10.2 17 22 1010.5 2.8 20.8 25.6 40.2 105.5 101.3 349.4
02/05 16:50 18.2 63 9.79 11 17 19 1010.3 2.8 21.9 26.4 42.1 110.8 107.9 372.2
02/05 16:40 18.4 59 9.28 10.3 20 24 1010.3 2.8 20.8 25.5 40.0 105.2 101.1 348.5
02/05 16:30 18.6 61 9.71 10.9 17 24 1010.4 2.8 21.7 26.2 41.6 109.4 106.3 366.8
02/05 16:20 18.5 61 9.65 10.8 20 24 1010.4 2.8 21.6 26.1 41.4 108.9 105.7 364.6
02/05 16:10 18.4 66 10.38 11.9 13 15 1010.2 2.8 23.2 27.3 44.4 116.7 115.3 398.2
02/05 16:00 18.2 66 10.26 11.7 15 19 1010.2 2.8 22.9 27.2 44.0 115.7 114.0 393.7
02/05 15:50 18.1 68 10.51 12.1 19 20 1010.1 2.8 23.4 27.6 45.0 118.6 117.4 405.7
02/05 15:40 17.5 77 11.48 13.4 20 24 1010 2.8 25.5 29.4 49.4 130.2 131.5 454.9
02/05 15:30 18.1 75 11.59 13.6 17 24 1010.3 2.8 25.7 29.4 49.5 130.4 132.1 456.8
02/05 15:20 17.6 81 12.15 14.3 13 17 1010.1 2.8 27.0 30.5 52.2 137.6 140.7 487.0
02/05 15:10 17.6 82 12.3 14.5 17 19 1010.2 2.8 27.3 30.8 52.9 139.4 142.9 494.5
02/05 15:00 17.5 82 12.22 14.4 17 26 1010.1 2.8 27.1 30.7 52.6 138.6 141.9 491.1
02/05 14:50 17.4 82 12.15 14.3 15 19 1010 2.8 27.0 30.6 52.3 138.0 141.1 488.2
02/05 14:40 17.5 81 12.08 14.2 15 19 1010 2.8 26.8 30.4 52.0 137.0 139.9 484.2
02/05 14:30 17.5 81 12.08 14.2 19 24 1010 2.8 26.8 30.4 52.0 137.0 139.9 484.2
02/05 14:20 17.2 79 11.57 13.5 22 28 1010 2.8 25.8 29.6 50.0 131.7 133.3 461.0
02/05 14:10 17.3 81 11.93 14 19 20 1009.7 2.8 26.5 30.2 51.4 135.6 138.1 477.9
02/05 14:00 17.3 83 12.23 14.4 19 24 1009.9 2.8 27.2 30.7 52.7 139.1 142.4 492.8
02/05 13:50 17.1 81 11.79 13.8 20 22 1009.9 2.8 26.2 30.0 51.0 134.4 136.6 472.4
02/05 13:40 17 82 11.86 13.9 15 17 1009.6 2.8 26.4 30.2 51.3 135.3 137.7 476.3
02/05 13:30 17.3 84 12.37 14.6 17 22 1009.8 2.8 27.5 31.0 53.3 140.7 144.4 499.7
02/05 13:20 16.6 85 12.01 14.1 15 19 1009.7 2.8 26.7 30.6 52.3 137.7 140.6 486.3
02/05 13:10 16.5 86 12.08 14.2 15 17 1009.7 2.8 26.9 30.8 52.6 138.7 141.7 490.4

Last Refresh: 03-May-2026 05:46:02

Bureau of Meteorology